createdAt,value
2023-05-23T00:00:14.366Z,17.65
2023-05-23T00:02:41.185Z,18.15
2023-05-23T00:05:08.092Z,16.05
2023-05-23T00:07:34.873Z,15.00
2023-05-23T00:10:01.460Z,14.45
2023-05-23T00:12:29.360Z,16.92
2023-05-23T00:14:55.978Z,13.98
2023-05-23T00:17:25.427Z,13.02
2023-05-23T00:19:52.821Z,14.10
2023-05-23T00:22:19.606Z,12.25
2023-05-23T00:24:46.313Z,15.25
2023-05-23T00:27:13.023Z,12.60
2023-05-23T00:29:39.668Z,13.85
2023-05-23T00:32:06.269Z,15.23
2023-05-23T00:34:32.941Z,14.07
2023-05-23T00:36:59.733Z,14.98
2023-05-23T00:39:26.333Z,15.70
2023-05-23T00:41:53.267Z,13.85
2023-05-23T00:44:21.236Z,13.32
2023-05-23T00:46:53.502Z,12.43
2023-05-23T00:49:20.945Z,15.32
2023-05-23T00:51:49.551Z,12.18
2023-05-23T00:54:21.948Z,12.30
2023-05-23T00:56:48.725Z,11.50
2023-05-23T00:59:15.894Z,12.27
2023-05-23T01:01:44.209Z,11.35
2023-05-23T01:04:11.708Z,12.15
2023-05-23T01:06:38.418Z,11.38
2023-05-23T01:09:05.249Z,11.63
2023-05-23T01:12:03.957Z,10.75
2023-05-23T01:14:43.553Z,10.85
2023-05-23T01:17:48.801Z,11.15
2023-05-23T01:20:39.907Z,10.88
2023-05-23T01:23:36.071Z,10.73
2023-05-23T01:26:32.471Z,10.82
2023-05-23T01:29:10.106Z,11.38
2023-05-23T01:31:45.333Z,10.60
2023-05-23T01:34:13.838Z,11.20
2023-05-23T01:36:43.132Z,11.45
2023-05-23T01:39:10.591Z,12.95
2023-05-23T01:41:37.244Z,11.98
2023-05-23T01:44:04.359Z,12.63
2023-05-23T01:46:32.768Z,12.38
2023-05-23T01:49:00.828Z,11.65
2023-05-23T01:51:28.923Z,11.93
2023-05-23T01:53:56.072Z,11.30
2023-05-23T01:56:22.965Z,12.20
2023-05-23T01:58:49.721Z,11.73
2023-05-23T02:01:16.385Z,11.32
2023-05-23T02:03:43.117Z,11.82
2023-05-23T02:06:10.713Z,12.02
2023-05-23T02:08:37.419Z,12.05
2023-05-23T02:11:04.065Z,14.20
2023-05-23T02:13:30.880Z,14.20
2023-05-23T02:15:57.490Z,13.10
2023-05-23T02:18:26.194Z,15.05
2023-05-23T02:20:52.857Z,13.98
2023-05-23T02:23:19.433Z,16.02
2023-05-23T02:25:46.056Z,14.18
2023-05-23T02:28:12.975Z,15.98
2023-05-23T02:30:39.957Z,17.17
2023-05-23T02:33:07.946Z,18.60
2023-05-23T02:35:34.783Z,20.75
2023-05-23T02:38:01.456Z,19.88
2023-05-23T02:40:28.075Z,23.05
2023-05-23T02:42:57.189Z,23.52
2023-05-23T02:45:24.255Z,21.45
2023-05-23T02:47:51.240Z,23.42
2023-05-23T02:50:17.882Z,22.50
2023-05-23T02:52:44.613Z,24.63
2023-05-23T02:55:11.304Z,27.88
2023-05-23T02:57:37.887Z,31.67
2023-05-23T03:00:05.043Z,36.00
2023-05-23T03:02:31.724Z,31.55
2023-05-23T03:04:58.516Z,33.63
2023-05-23T03:07:28.697Z,31.80
2023-05-23T03:09:56.178Z,41.53
2023-05-23T03:12:22.940Z,37.17
2023-05-23T03:14:49.732Z,38.35
2023-05-23T03:17:16.581Z,40.47
2023-05-23T03:19:43.419Z,42.55
2023-05-23T03:22:10.314Z,46.08
2023-05-23T03:24:37.078Z,43.45
2023-05-23T03:27:04.273Z,40.33
2023-05-23T03:29:31.079Z,40.30
2023-05-23T03:31:57.933Z,42.10
2023-05-23T03:34:26.603Z,52.08
2023-05-23T03:36:53.519Z,45.80
2023-05-23T03:39:20.382Z,43.45
2023-05-23T03:41:47.446Z,41.70
2023-05-23T03:44:14.839Z,43.15
2023-05-23T03:46:41.777Z,39.60
2023-05-23T03:49:08.676Z,44.08
2023-05-23T03:51:35.515Z,45.75
2023-05-23T03:54:02.458Z,43.75
2023-05-23T03:56:29.366Z,39.30
2023-05-23T03:58:56.101Z,42.13
2023-05-23T04:01:23.080Z,43.90
2023-05-23T04:03:50.027Z,40.30
2023-05-23T04:06:17.399Z,34.83
2023-05-23T04:08:44.208Z,36.80
2023-05-23T04:11:11.099Z,34.65
2023-05-23T04:13:38.253Z,38.70
2023-05-23T04:16:06.031Z,36.72
2023-05-23T04:18:39.490Z,44.50
2023-05-23T04:21:06.734Z,41.08
2023-05-23T04:23:43.783Z,38.88
2023-05-23T04:26:16.081Z,37.97
2023-05-23T04:28:49.052Z,39.20
2023-05-23T04:31:19.114Z,37.33
2023-05-23T04:34:05.274Z,37.90
2023-05-23T04:36:45.050Z,30.85
2023-05-23T04:39:16.017Z,30.15
2023-05-23T04:42:16.080Z,26.42
2023-05-23T04:44:45.893Z,21.33
2023-05-23T04:47:12.634Z,22.80
2023-05-23T04:50:00.679Z,21.92
2023-05-23T04:52:55.545Z,22.58
2023-05-23T04:55:22.321Z,21.85
2023-05-23T04:58:08.044Z,22.45
2023-05-23T05:00:35.954Z,26.42
2023-05-23T05:03:02.685Z,31.60
2023-05-23T05:05:55.237Z,27.98
2023-05-23T05:08:21.903Z,34.33
2023-05-23T05:10:59.988Z,32.97
2023-05-23T05:13:26.739Z,37.53
2023-05-23T05:15:56.142Z,37.42
2023-05-23T05:18:57.984Z,38.38
2023-05-23T05:21:55.234Z,39.90
2023-05-23T05:24:25.298Z,31.23
2023-05-23T05:26:52.130Z,31.20
2023-05-23T05:29:18.780Z,31.58
2023-05-23T05:31:45.485Z,33.20
2023-05-23T05:34:12.694Z,29.95
2023-05-23T05:36:45.818Z,26.15
2023-05-23T05:39:13.873Z,23.30
2023-05-23T05:41:40.618Z,23.58
2023-05-23T05:44:08.415Z,23.38
2023-05-23T05:46:35.118Z,20.77
2023-05-23T05:49:01.761Z,23.02
2023-05-23T05:51:28.745Z,20.15
2023-05-23T05:53:55.342Z,21.58
2023-05-23T05:56:22.668Z,15.70
2023-05-23T05:58:49.500Z,16.63
2023-05-23T06:01:16.202Z,19.85
2023-05-23T06:03:43.185Z,20.25
2023-05-23T06:06:10.468Z,18.05
2023-05-23T06:08:37.186Z,19.80
2023-05-23T06:11:03.911Z,15.30
2023-05-23T06:13:30.703Z,16.55
2023-05-23T06:15:58.416Z,15.68
2023-05-23T06:18:25.305Z,12.05
2023-05-23T06:20:52.118Z,15.13
2023-05-23T06:23:18.835Z,14.10
2023-05-23T06:25:45.432Z,12.30
2023-05-23T06:28:12.046Z,12.82
2023-05-23T06:30:39.348Z,11.55
2023-05-23T06:33:12.414Z,8.50
2023-05-23T06:35:50.503Z,9.73
2023-05-23T06:38:17.874Z,9.23
2023-05-23T06:40:44.617Z,8.48
2023-05-23T06:43:11.219Z,9.45
2023-05-23T06:45:38.290Z,11.07
2023-05-23T06:48:05.557Z,10.98
2023-05-23T06:50:32.333Z,11.77
2023-05-23T06:52:58.932Z,11.75
2023-05-23T06:55:25.743Z,8.93
2023-05-23T06:57:52.502Z,11.20
2023-05-23T07:00:19.781Z,9.70
2023-05-23T07:02:48.622Z,10.80
2023-05-23T07:05:16.160Z,9.70
2023-05-23T07:07:43.360Z,10.13
2023-05-23T07:10:10.379Z,10.60
2023-05-23T07:12:36.991Z,6.72
2023-05-23T07:15:03.828Z,8.15
2023-05-23T07:17:30.613Z,6.22
2023-05-23T07:19:57.243Z,7.93
2023-05-23T07:22:24.029Z,9.55
2023-05-23T07:24:50.661Z,10.82
2023-05-23T07:27:17.264Z,7.30
2023-05-23T07:29:43.935Z,8.02
2023-05-23T07:32:10.607Z,6.88
2023-05-23T07:34:37.225Z,9.93
2023-05-23T07:37:03.930Z,11.88
2023-05-23T07:39:30.582Z,8.02
2023-05-23T07:41:57.289Z,6.53
2023-05-23T07:44:25.311Z,13.18
2023-05-23T07:46:52.238Z,8.90
2023-05-23T07:49:19.307Z,10.60
2023-05-23T07:51:46.005Z,7.57
2023-05-23T07:54:14.510Z,8.95
2023-05-23T07:56:43.487Z,7.97
2023-05-23T07:59:10.093Z,6.03
2023-05-23T08:01:37.378Z,7.68
2023-05-23T08:04:04.346Z,7.50
2023-05-23T08:06:31.842Z,7.63
2023-05-23T08:08:58.497Z,9.70
2023-05-23T08:11:25.251Z,10.18
2023-05-23T08:13:51.857Z,12.57
2023-05-23T08:16:18.580Z,12.02
2023-05-23T08:18:45.419Z,13.20
2023-05-23T08:21:12.076Z,11.60
2023-05-23T08:23:38.744Z,8.20
2023-05-23T08:26:05.507Z,11.57
2023-05-23T08:28:34.581Z,11.07
2023-05-23T08:31:01.323Z,10.38
2023-05-23T08:33:27.923Z,12.27
2023-05-23T08:35:54.859Z,8.48
2023-05-23T08:38:22.093Z,11.82
2023-05-23T08:40:52.167Z,9.85
2023-05-23T08:43:19.677Z,13.15
2023-05-23T08:45:47.995Z,14.35
2023-05-23T08:48:17.349Z,12.05
2023-05-23T08:50:48.948Z,12.32
2023-05-23T08:53:20.322Z,12.73
2023-05-23T08:55:48.786Z,9.65
2023-05-23T08:58:16.049Z,10.77
2023-05-23T09:00:43.706Z,8.60
2023-05-23T09:03:12.293Z,8.52
2023-05-23T09:05:39.013Z,9.80
2023-05-23T09:08:05.900Z,10.35
2023-05-23T09:10:33.058Z,8.27
2023-05-23T09:12:59.898Z,6.35
2023-05-23T09:15:27.275Z,9.10
2023-05-23T09:17:53.955Z,11.30
2023-05-23T09:20:20.623Z,10.55
2023-05-23T09:22:48.866Z,9.30
2023-05-23T09:25:16.257Z,9.00
2023-05-23T09:27:45.720Z,10.50
2023-05-23T09:30:14.771Z,6.63
2023-05-23T09:32:42.232Z,5.97
2023-05-23T09:35:13.721Z,7.32
2023-05-23T09:37:45.746Z,11.52
2023-05-23T09:40:16.350Z,10.10
2023-05-23T09:42:45.411Z,8.77
2023-05-23T09:45:17.034Z,9.48
2023-05-23T09:47:54.285Z,13.30
2023-05-23T09:50:21.542Z,9.88
2023-05-23T09:52:48.460Z,9.30
2023-05-23T09:55:15.272Z,8.60
2023-05-23T09:57:43.697Z,10.40
2023-05-23T10:00:12.425Z,9.05
2023-05-23T10:03:14.739Z,9.25
2023-05-23T10:05:49.500Z,8.77
2023-05-23T10:08:29.891Z,6.38
2023-05-23T10:10:56.468Z,6.18
2023-05-23T10:13:26.838Z,9.65
2023-05-23T10:16:03.132Z,11.63
2023-05-23T10:18:34.648Z,10.32
2023-05-23T10:21:15.670Z,10.55
2023-05-23T10:23:44.481Z,6.03
2023-05-23T10:26:11.680Z,5.97
2023-05-23T10:28:39.753Z,9.43
2023-05-23T10:31:06.530Z,12.70
2023-05-23T10:33:40.756Z,6.35
2023-05-23T10:36:18.365Z,9.32
2023-05-23T10:39:22.471Z,7.93
2023-05-23T10:41:53.162Z,7.45
2023-05-23T10:44:32.572Z,8.80
2023-05-23T10:47:04.382Z,8.52
2023-05-23T10:49:41.646Z,9.30
2023-05-23T10:52:10.941Z,9.80
2023-05-23T10:54:46.601Z,8.52
2023-05-23T10:57:16.841Z,8.05
2023-05-23T10:59:44.948Z,9.95
2023-05-23T11:02:16.555Z,7.97
2023-05-23T11:04:43.711Z,8.80
2023-05-23T11:07:30.741Z,8.13
2023-05-23T11:10:11.452Z,9.43
2023-05-23T11:12:40.776Z,7.35
2023-05-23T11:15:22.590Z,9.88
2023-05-23T11:17:50.661Z,8.35
2023-05-23T11:20:23.251Z,9.95
2023-05-23T11:23:03.528Z,7.68
2023-05-23T11:25:44.016Z,5.35
2023-05-23T11:28:12.101Z,7.10
2023-05-23T11:30:39.633Z,6.32
2023-05-23T11:33:17.031Z,8.00
2023-05-23T11:35:45.962Z,11.45
2023-05-23T11:38:13.913Z,7.38
2023-05-23T11:40:42.770Z,4.95
2023-05-23T11:43:14.806Z,8.45
2023-05-23T11:45:43.108Z,10.82
2023-05-23T11:48:14.513Z,10.82
2023-05-23T11:50:46.203Z,8.55
2023-05-23T11:53:13.780Z,9.85
2023-05-23T11:55:41.795Z,12.15
2023-05-23T11:58:10.632Z,7.68
2023-05-23T12:00:44.121Z,12.60
2023-05-23T12:03:11.797Z,6.68
2023-05-23T12:05:40.564Z,7.80
2023-05-23T12:08:07.471Z,8.00
2023-05-23T12:10:34.676Z,7.05
2023-05-23T12:13:01.654Z,8.75
2023-05-23T12:15:30.998Z,10.90
2023-05-23T12:17:58.252Z,7.22
2023-05-23T12:20:26.608Z,8.15
2023-05-23T12:22:54.594Z,6.03
2023-05-23T12:25:23.304Z,6.07
2023-05-23T12:27:49.998Z,7.82
2023-05-23T12:30:17.727Z,11.55
2023-05-23T12:32:53.053Z,9.68
2023-05-23T12:35:20.208Z,10.07
2023-05-23T12:37:47.419Z,7.75
2023-05-23T12:40:18.888Z,6.80
2023-05-23T12:42:53.268Z,7.75
2023-05-23T12:45:22.359Z,5.05
2023-05-23T12:47:51.353Z,8.95
2023-05-23T12:50:19.780Z,9.63
2023-05-23T12:52:46.560Z,8.60
2023-05-23T12:55:13.744Z,7.85
2023-05-23T12:57:40.365Z,8.80
2023-05-23T13:00:08.253Z,10.30
2023-05-23T13:02:35.181Z,10.05
2023-05-23T13:05:01.870Z,8.85
2023-05-23T13:07:29.736Z,10.77
2023-05-23T13:09:57.036Z,7.68
2023-05-23T13:12:24.505Z,7.07
2023-05-23T13:14:51.343Z,10.10
2023-05-23T13:17:18.483Z,8.13
2023-05-23T13:19:46.369Z,12.32
2023-05-23T13:22:13.252Z,9.30
2023-05-23T13:24:40.862Z,7.82
2023-05-23T13:27:07.947Z,7.95
2023-05-23T13:29:34.668Z,7.80
2023-05-23T13:32:01.382Z,10.70
2023-05-23T13:34:28.682Z,9.25
2023-05-23T13:36:55.652Z,8.55
2023-05-23T13:39:22.810Z,7.78
2023-05-23T13:41:50.618Z,10.00
2023-05-23T13:44:17.331Z,8.30
2023-05-23T13:46:44.306Z,9.75
2023-05-23T13:49:11.065Z,9.63
2023-05-23T13:51:37.942Z,10.65
2023-05-23T13:54:06.033Z,10.38
2023-05-23T13:56:33.629Z,10.25
2023-05-23T13:59:01.656Z,9.73
2023-05-23T14:01:28.609Z,8.63
2023-05-23T14:03:55.668Z,12.43
2023-05-23T14:06:22.446Z,8.70
2023-05-23T14:08:49.088Z,8.70
2023-05-23T14:11:15.759Z,11.77
2023-05-23T14:13:42.643Z,10.18
2023-05-23T14:16:09.354Z,7.80
2023-05-23T14:18:35.971Z,9.23
2023-05-23T14:21:02.689Z,8.98
2023-05-23T14:23:29.403Z,12.75
2023-05-23T14:25:56.143Z,7.80
2023-05-23T14:28:22.752Z,8.80
2023-05-23T14:30:49.398Z,7.82
2023-05-23T14:33:16.187Z,7.32
2023-05-23T14:35:43.306Z,7.93
2023-05-23T14:38:10.284Z,11.00
2023-05-23T14:40:36.901Z,8.07
2023-05-23T14:43:03.553Z,11.35
2023-05-23T14:45:30.211Z,7.95
2023-05-23T14:47:56.887Z,10.38
2023-05-23T14:50:23.847Z,7.47
2023-05-23T14:52:50.605Z,7.40
2023-05-23T14:55:17.326Z,10.98
2023-05-23T14:57:43.965Z,10.52
2023-05-23T15:00:11.619Z,10.18
2023-05-23T15:02:38.401Z,7.90
2023-05-23T15:05:05.750Z,7.47
2023-05-23T15:07:32.456Z,13.75
2023-05-23T15:09:59.052Z,12.15
2023-05-23T15:12:25.773Z,8.07
2023-05-23T15:14:52.387Z,10.15
2023-05-23T15:17:20.351Z,10.13
2023-05-23T15:19:47.109Z,7.75
2023-05-23T15:22:33.567Z,13.38
2023-05-23T15:25:00.624Z,9.07
2023-05-23T15:27:27.287Z,12.30
2023-05-23T15:29:54.061Z,6.63
2023-05-23T15:32:20.761Z,6.18
2023-05-23T15:34:47.463Z,8.38
2023-05-23T15:37:14.108Z,6.65
2023-05-23T15:39:40.717Z,6.22
2023-05-23T15:42:07.595Z,6.78
2023-05-23T15:44:34.265Z,10.13
2023-05-23T15:47:00.995Z,9.98
2023-05-23T15:49:27.716Z,13.50
2023-05-23T15:51:55.192Z,13.48
2023-05-23T15:54:22.331Z,11.77
2023-05-23T15:56:49.032Z,12.20
2023-05-23T15:59:15.636Z,10.45
2023-05-23T16:01:42.294Z,9.80
2023-05-23T16:04:08.974Z,10.68
2023-05-23T16:06:36.546Z,11.18
2023-05-23T16:09:03.604Z,11.88
2023-05-23T16:11:30.511Z,9.05
2023-05-23T16:13:57.168Z,7.93
2023-05-23T16:16:23.867Z,9.90
2023-05-23T16:18:50.609Z,7.85
2023-05-23T16:21:20.490Z,7.68
2023-05-23T16:23:48.469Z,13.10
2023-05-23T16:26:16.129Z,9.40
2023-05-23T16:28:43.603Z,9.77
2023-05-23T16:31:14.526Z,9.52
2023-05-23T16:33:41.350Z,10.55
2023-05-23T16:36:08.189Z,8.45
2023-05-23T16:38:34.911Z,8.10
2023-05-23T16:41:01.661Z,11.45
2023-05-23T16:43:28.267Z,6.63
2023-05-23T16:45:55.369Z,7.80
2023-05-23T16:48:22.288Z,10.05
2023-05-23T16:50:49.285Z,11.13
2023-05-23T16:53:16.094Z,13.10
2023-05-23T16:55:43.021Z,8.40
2023-05-23T16:58:10.058Z,16.02
2023-05-23T17:00:36.835Z,13.35
2023-05-23T17:03:03.868Z,8.82
2023-05-23T17:05:30.954Z,9.38
2023-05-23T17:07:57.748Z,9.77
2023-05-23T17:10:24.379Z,11.65
2023-05-23T17:12:51.198Z,10.52
2023-05-23T17:15:17.874Z,10.35
2023-05-23T17:17:44.658Z,8.60
2023-05-23T17:20:11.590Z,10.80
2023-05-23T17:22:38.487Z,9.18
2023-05-23T17:25:06.593Z,7.55
2023-05-23T17:27:33.519Z,10.75
2023-05-23T17:30:00.256Z,8.30
2023-05-23T17:32:27.886Z,12.13
2023-05-23T17:34:54.730Z,10.80
2023-05-23T17:37:21.647Z,11.68
2023-05-23T17:39:50.760Z,9.13
2023-05-23T17:42:17.942Z,11.35
2023-05-23T17:44:44.574Z,13.43
2023-05-23T17:47:11.338Z,13.00
2023-05-23T17:49:38.771Z,10.57
2023-05-23T17:52:06.859Z,12.82
2023-05-23T17:54:33.541Z,13.13
2023-05-23T17:57:00.132Z,12.80
2023-05-23T17:59:27.913Z,10.10
2023-05-23T18:01:54.654Z,10.43
2023-05-23T18:04:22.112Z,11.70
2023-05-23T18:06:48.830Z,12.15
2023-05-23T18:09:16.462Z,9.27
2023-05-23T18:11:43.136Z,13.60
2023-05-23T18:14:09.778Z,9.60
2023-05-23T18:16:36.661Z,15.15
2023-05-23T18:19:03.353Z,8.70
2023-05-23T18:21:30.145Z,9.63
2023-05-23T18:23:57.778Z,9.18
2023-05-23T18:26:24.461Z,9.80
2023-05-23T18:28:51.202Z,13.93
2023-05-23T18:31:17.803Z,10.07
2023-05-23T18:33:44.517Z,9.48
2023-05-23T18:36:11.527Z,10.60
2023-05-23T18:38:38.234Z,10.75
2023-05-23T18:41:04.999Z,15.80
2023-05-23T18:43:31.651Z,15.05
2023-05-23T18:45:58.317Z,10.02
2023-05-23T18:48:24.935Z,12.80
2023-05-23T18:50:51.778Z,13.48
2023-05-23T18:53:19.149Z,10.75
2023-05-23T18:55:45.868Z,12.80
2023-05-23T18:58:12.636Z,9.20
2023-05-23T19:00:39.392Z,13.02
2023-05-23T19:03:06.320Z,11.90
2023-05-23T19:05:33.079Z,14.77
2023-05-23T19:07:59.694Z,11.05
2023-05-23T19:10:26.469Z,17.17
2023-05-23T19:12:53.082Z,11.50
2023-05-23T19:15:20.380Z,11.55
2023-05-23T19:17:47.372Z,11.35
2023-05-23T19:20:18.377Z,12.68
2023-05-23T19:22:51.803Z,13.52
2023-05-23T19:25:19.754Z,14.70
2023-05-23T19:27:46.441Z,15.45
2023-05-23T19:30:13.391Z,15.35
2023-05-23T19:32:40.168Z,21.15
2023-05-23T19:35:08.171Z,12.63
2023-05-23T19:37:34.916Z,13.77
2023-05-23T19:40:01.827Z,14.27
2023-05-23T19:42:28.548Z,13.13
2023-05-23T19:44:55.209Z,11.68
2023-05-23T19:47:21.966Z,15.43
2023-05-23T19:49:48.627Z,14.25
2023-05-23T19:52:15.211Z,16.65
2023-05-23T19:54:41.962Z,15.50
2023-05-23T19:57:08.693Z,13.80
2023-05-23T19:59:35.302Z,16.35
2023-05-23T20:02:01.893Z,14.85
2023-05-23T20:04:28.626Z,14.63
2023-05-23T20:06:56.050Z,13.77
2023-05-23T20:09:23.640Z,12.20
2023-05-23T20:11:50.264Z,16.90
2023-05-23T20:14:16.853Z,13.07
2023-05-23T20:16:43.686Z,15.88
2023-05-23T20:19:10.630Z,14.13
2023-05-23T20:21:37.312Z,15.50
2023-05-23T20:24:04.002Z,14.18
2023-05-23T20:26:30.757Z,16.42
2023-05-23T20:28:57.428Z,17.13
2023-05-23T20:31:24.231Z,11.05
2023-05-23T20:33:52.279Z,14.88
2023-05-23T20:36:20.869Z,13.30
2023-05-23T20:38:47.843Z,18.23
2023-05-23T20:41:14.511Z,18.95
2023-05-23T20:43:41.253Z,21.55
2023-05-23T20:46:11.095Z,14.90
2023-05-23T20:48:37.775Z,13.50
2023-05-23T20:51:05.836Z,14.07
2023-05-23T20:53:32.770Z,14.98
2023-05-23T20:56:00.050Z,20.92
2023-05-23T20:58:27.055Z,17.52
2023-05-23T21:00:53.802Z,19.15
2023-05-23T21:03:20.730Z,15.15
2023-05-23T21:05:47.584Z,18.38
2023-05-23T21:08:14.406Z,16.20
2023-05-23T21:10:41.485Z,17.77
2023-05-23T21:13:08.462Z,15.05
2023-05-23T21:15:35.179Z,16.05
2023-05-23T21:18:01.934Z,15.93
2023-05-23T21:20:37.703Z,16.83
2023-05-23T21:23:04.305Z,13.93
2023-05-23T21:25:31.069Z,13.18
2023-05-23T21:27:57.647Z,18.17
2023-05-23T21:30:26.183Z,18.33
2023-05-23T21:32:53.110Z,19.55
2023-05-23T21:35:19.881Z,18.77
2023-05-23T21:37:46.586Z,14.57
2023-05-23T21:40:13.173Z,17.70
2023-05-23T21:42:39.772Z,15.80
2023-05-23T21:45:07.082Z,15.32
2023-05-23T21:47:33.744Z,18.95
2023-05-23T21:50:00.541Z,13.70
2023-05-23T21:52:27.182Z,24.77
2023-05-23T21:54:53.745Z,21.67
2023-05-23T21:57:20.397Z,24.38
2023-05-23T21:59:47.057Z,19.42
2023-05-23T22:02:13.936Z,18.20
2023-05-23T22:04:40.605Z,21.90
2023-05-23T22:07:08.536Z,19.55
2023-05-23T22:09:35.173Z,24.42
2023-05-23T22:12:01.871Z,18.55
2023-05-23T22:14:28.798Z,21.02
2023-05-23T22:16:56.215Z,18.20
2023-05-23T22:19:26.167Z,14.55
2023-05-23T22:21:53.220Z,20.55
2023-05-23T22:24:19.842Z,17.27
2023-05-23T22:26:46.603Z,16.58
2023-05-23T22:29:13.259Z,14.00
2023-05-23T22:31:39.864Z,22.65
2023-05-23T22:34:06.478Z,22.73
2023-05-23T22:36:33.479Z,17.02
2023-05-23T22:39:05.156Z,20.83
2023-05-23T22:41:32.265Z,21.75
2023-05-23T22:43:58.943Z,24.25
2023-05-23T22:46:25.610Z,19.30
2023-05-23T22:48:52.533Z,21.33
2023-05-23T22:51:19.782Z,20.02
2023-05-23T22:53:46.511Z,19.73
2023-05-23T22:56:13.430Z,20.08
2023-05-23T22:58:40.056Z,26.27
2023-05-23T23:01:06.777Z,19.65
2023-05-23T23:03:33.463Z,20.10
2023-05-23T23:06:00.196Z,23.35
2023-05-23T23:08:27.301Z,19.98
2023-05-23T23:10:53.924Z,17.88
2023-05-23T23:13:20.586Z,30.88
2023-05-23T23:15:49.651Z,23.38
2023-05-23T23:18:16.647Z,26.90
2023-05-23T23:20:43.404Z,18.23
2023-05-23T23:23:10.355Z,23.85
2023-05-23T23:25:37.929Z,22.20
2023-05-23T23:28:04.606Z,24.40
2023-05-23T23:30:31.755Z,19.45
2023-05-23T23:32:58.495Z,16.00
2023-05-23T23:35:25.243Z,21.88
2023-05-23T23:37:52.024Z,22.13
2023-05-23T23:40:18.721Z,20.98
2023-05-23T23:42:45.490Z,22.42
2023-05-23T23:45:12.208Z,23.48
2023-05-23T23:47:38.908Z,23.85
2023-05-23T23:50:06.722Z,20.25
2023-05-23T23:52:33.496Z,22.58
2023-05-23T23:55:00.480Z,20.75
2023-05-23T23:57:27.137Z,23.33
2023-05-23T23:59:53.864Z,25.30
